Weather observations for the past three days for
Melville Hall Airport
Imperial (Metric)
Date Time (ast) Wind (mph) Vis. (mi.) Weather Sky Cond. Temperature (ºF) Relative Humidity Wind Chill (°F) Heat Index (°F) Pressure Precipitation (in)
Air Dwpt 6 hour altimeter (in) sea level (mb) 1 hr 3 hr 6 hr
Max. Min.
01 17:00 E 8 0.00 A Few Clouds FEW020 84.2 77 79% 94 0 0.0
01 16:00 E 9 0.00 A Few Clouds FEW020 86 77 75% 97 0 0.0
01 15:00 E 8 0.00 A Few Clouds FEW024 86 77 75% 97 0 0.0
01 14:00 E 8 0.00 A Few Clouds FEW024 86 77 75% 97 0 0.0
01 13:00 E 9 0.00 A Few Clouds FEW020 86 78.8 79% 99 0 0.0
01 12:00 E 9 0.00 Mostly Cloudy BKN020 86 78.8 79% 99 0 0.0
01 10:00 SE 9 0.00 A Few Clouds FEW017 86 77 75% 97 0 0.0
01 09:00 SE 10 0.00 Partly Cloudy SCT024 86 78.8 79% 99 0 0.0
01 08:00 SE 7 0.00 Mostly Cloudy BKN018 82.4 78.8 89% 92 0 0.0
01 07:00 SE 6 0.00 Partly Cloudy SCT016 80.6 78.8 94% 88 0 0.0
01 06:00 Vrbl 1 0.00 Mostly Cloudy BKN017 77 77 100% 78 0 0.0
31 20:00 SE 6 0.00 Mostly Cloudy SCT018 BKN040 82.4 77 84% 91 0 0.0
31 19:00 SE 6 0.00 Mostly Cloudy SCT018 BKN040 82.4 77 84% 91 0 0.0
31 18:00 E 7 0.00 Mostly Cloudy FEW015 SCT018 BKN040 82.4 78.8 89% 92 0 0.0
31 17:00 SE 7 0.00 Partly Cloudy SCT019 SCT042 86 78.8 79% 99 0 0.0
31 16:00 SE 7 0.00 Partly Cloudy FEW015 SCT018 84.2 78.8 84% 96 0 0.0
31 15:00 SE 8 0.00 Light Showers Rain FEW015 SCT019 84.2 78.8 84% 96 0 0.0
31 14:00 E 10 0.00 Mostly Cloudy BKN020 86 78.8 79% 99 0 0.0
31 13:00 SE 7 0.00 Mostly Cloudy BKN024 87.8 75.2 66% 98 0 0.0
31 12:00 E 10 0.00 Partly Cloudy BKN024 SCT042 86 80.6 84% 102 0 0.0
31 11:00 E 12 0.00 Mostly Cloudy BKN021 BKN045 86 78.8 79% 99 0 0.0
31 10:00 E 10 0.00 Mostly Cloudy SCT019 BKN045 84.2 78.8 84% 96 0 0.0
31 09:00 E 12 0.00 Mostly Cloudy SCT016 BKN048 84.2 80.6 89% 98 0 0.0
31 08:00 E 7 0.00 Light Rain BKN016 SCT045 80.6 75.2 84% 86 0 0.0
31 07:00 W 3 0.00 Light Rain BKN014 SCT045 77 75.2 94% 78 0 0.0
30 21:00 Vrbl 2 0.00 Light Rain BKN017 75.2 75.2 100% 73 0 0.0
30 20:00 SW 3 0.00 Thunderstorm Light Rain BKN017 77 77 100% 78 0 0.0
30 19:00 Vrbl 2 0.00 Partly Cloudy SCT017 77 77 100% 78 0 0.0
30 18:00 Vrbl 2 0.00 Partly Cloudy FEW017 SCT040 78.8 77 94% 83 0 0.0
30 17:00 Vrbl 2 0.00 Light Rain FEW018 78.8 77 94% 83 0 0.0
30 16:00 W 3 0.00 Light Rain FEW018 BKN038 78.8 77 94% 83 0 0.0
30 15:00 W 3 0.00 Thunderstorm Light Rain BKN019 78.8 77 94% 83 0 0.0
30 14:00 SE 5 0.00 Light Showers Rain BKN017 82.4 78.8 89% 92 0 0.0
30 13:00 SE 9 0.00 Partly Cloudy SCT019 86 78.8 79% 99 0 0.0
30 12:00 SE 5 0.00 Partly Cloudy SCT016 86 80.6 84% 102 0 0.0
30 11:00 SE 6 0.00 A Few Clouds FEW016 82.4 80.6 94% 94 0 0.0
30 10:00 Vrbl 2 0.00 A Few Clouds FEW021 78.8 78.8 100% 83 0 0.0
30 09:00 E 3 0.00 Light Showers Rain FEW015 77 77 100% 78 0 0.0
30 08:51 E 8 0.00 Light Showers Rain FEW015 77 77 100% 78 0 0.0
30 08:35 Vrbl 1 0.00 Thunderstorm Light Rain Showers in Vicinity FEW012 BKN017 78.8 77 94% 83 0 0.0
30 08:00 Vrbl 2 0.00 Light Showers Rain SCT012 77 77 100% 78 0 0.0
30 07:22 S 8 G 25 0.00 Showers Rain Showers in Vicinity BKN017 78.8 77 94% 83 0 0.0
30 07:16 W 3 0.00 Showers Rain Showers in Vicinity BKN017 77 77 100% 78 0 0.0
30 07:10 W 3 0.00 Light Showers Rain Showers in Vicinity BKN017 77 77 100% 78 0 0.0
30 07:00 W 5 0.00 Showers in Vicinity FEW015 SCT019 77 77 100% 78 0 0.0
30 06:00 Vrbl 2 0.00 Mostly Cloudy FEW016 BKN032 75.2 75.2 100% 73 0 0.0
29 19:00 W 3 0.00 Mostly Cloudy BKN016 80.6 78.8 94% 88 0 0.0
29 18:00 E 7 0.00 Mostly Cloudy BKN016 82.4 78.8 89% 92 0 0.0
Date Time (ast) Wind (mph) Vis. (mi.) Weather Sky Cond. Air Dwpt Max. Min. Relative Humidity Wind Chill (°F) Heat Index (°F) altimeter (in) sea level (mb) 1 hr 3 hr 6 hr
6 hour
Temperature (ºF) Pressure Precipitation (in)